Terminal Aerodrome Forecast
Issued by NWS

Home | Current Version | Previous Version | Text Only | Print | Product List | Glossary On
Versions: 1 2 3 4 5 6 7 8 9 10 11 12 13 14 15 16 17
139
FTUS46 KMTR 251852 AAA
TAFSJC
TAF AMD
KSJC 251852Z 2519/2618 33005KT P6SM FEW010
      TEMPO 2519/2521 5SM HZ
     FM252100 31010KT P6SM FEW015
     FM260600 32004KT P6SM SCT013
     FM260900 VRB03KT P6SM BKN012
     FM261300 VRB03KT 6SM BR OVC011=

USA.gov is the U.S. government's official web portal to all federal, state and local government web resources and services.